createdAt,value
2017-12-10T00:01:00.776Z,99257.95
2017-12-10T00:03:28.267Z,99257.55
2017-12-10T00:05:55.744Z,99249.21
2017-12-10T00:08:23.199Z,99244.63
2017-12-10T00:10:50.832Z,99233.67
2017-12-10T00:13:18.281Z,99236.61
2017-12-10T00:15:45.752Z,99238.98
2017-12-10T00:18:13.311Z,99236.08
2017-12-10T00:20:40.756Z,99243.26
2017-12-10T00:23:08.204Z,99238.20
2017-12-10T00:25:35.660Z,99233.58
2017-12-10T00:28:03.123Z,99238.94
2017-12-10T00:30:30.577Z,99275.94
2017-12-10T00:32:58.028Z,99260.86
2017-12-10T00:35:25.484Z,99249.55
2017-12-10T00:37:52.941Z,99244.38
2017-12-10T00:40:20.447Z,99237.20
2017-12-10T00:42:47.916Z,99236.94
2017-12-10T00:45:15.494Z,99250.41
2017-12-10T00:47:42.974Z,99271.98
2017-12-10T00:50:10.431Z,99249.39
2017-12-10T00:52:37.889Z,99263.70
2017-12-10T00:55:05.380Z,99249.12
2017-12-10T00:57:32.834Z,99244.41
2017-12-10T01:00:00.298Z,99250.78
2017-12-10T01:02:27.763Z,99241.13
2017-12-10T01:04:55.226Z,99246.91
2017-12-10T01:07:22.675Z,99243.52
2017-12-10T01:09:50.132Z,99250.98
2017-12-10T01:12:17.620Z,99235.98
2017-12-10T01:14:45.071Z,99251.95
2017-12-10T01:17:12.541Z,99245.14
2017-12-10T01:19:39.998Z,99235.84
2017-12-10T01:22:07.458Z,99236.16
2017-12-10T01:24:34.900Z,99237.84
2017-12-10T01:27:02.368Z,99235.58
2017-12-10T01:29:29.808Z,99234.80
2017-12-10T01:31:57.248Z,99240.45
2017-12-10T01:34:24.728Z,99231.06
2017-12-10T01:36:52.248Z,99226.26
2017-12-10T01:39:19.712Z,99243.00
2017-12-10T01:41:47.172Z,99222.82
2017-12-10T01:44:14.614Z,99225.66
2017-12-10T01:46:42.071Z,99220.62
2017-12-10T01:49:09.563Z,99217.75
2017-12-10T01:51:36.994Z,99220.27
2017-12-10T01:54:04.494Z,99227.70
2017-12-10T01:56:32.554Z,99216.13
2017-12-10T01:59:00.064Z,99218.95
2017-12-10T02:01:27.548Z,99207.48
2017-12-10T02:03:54.998Z,99222.06
2017-12-10T02:06:22.589Z,99224.19
2017-12-10T02:11:23.931Z,99217.13
2017-12-10T02:13:51.420Z,99215.09
2017-12-10T02:16:18.862Z,99209.73
2017-12-10T02:18:46.367Z,99204.57
2017-12-10T02:21:13.924Z,99209.70
2017-12-10T02:23:41.379Z,99198.42
2017-12-10T02:26:08.824Z,99197.97
2017-12-10T02:28:36.333Z,99192.09
2017-12-10T02:31:03.776Z,99189.56
2017-12-10T02:33:31.239Z,99185.92
2017-12-10T02:35:58.689Z,99183.14
2017-12-10T02:38:26.136Z,99176.86
2017-12-10T02:40:53.638Z,99173.67
2017-12-10T02:43:21.114Z,99175.41
2017-12-10T02:45:48.572Z,99166.61
2017-12-10T02:48:16.058Z,99168.11
2017-12-10T02:50:43.533Z,99172.64
2017-12-10T02:53:11.005Z,99167.15
2017-12-10T02:55:38.447Z,99172.06
2017-12-10T02:58:05.939Z,99166.51
2017-12-10T03:00:33.387Z,99163.10
2017-12-10T03:03:01.084Z,99164.72
2017-12-10T03:05:28.546Z,99156.77
2017-12-10T03:07:55.993Z,99146.87
2017-12-10T03:10:23.619Z,99147.53
2017-12-10T03:12:51.075Z,99145.29
2017-12-10T03:15:18.555Z,99139.40
2017-12-10T03:17:46.043Z,99137.97
2017-12-10T03:20:13.605Z,99139.09
2017-12-10T03:22:41.044Z,99135.34
2017-12-10T03:25:08.511Z,99145.50
2017-12-10T03:27:35.976Z,99139.09
2017-12-10T03:30:03.530Z,99132.70
2017-12-10T03:32:31.268Z,99135.19
2017-12-10T03:34:58.745Z,99152.56
2017-12-10T03:37:26.229Z,99136.45
2017-12-10T03:39:53.689Z,99138.31
2017-12-10T03:42:21.128Z,99128.61
2017-12-10T03:44:48.574Z,99129.08
2017-12-10T03:47:16.029Z,99135.20
2017-12-10T03:49:43.467Z,99130.55
2017-12-10T03:52:10.981Z,99125.20
2017-12-10T03:54:38.427Z,99118.13
2017-12-10T03:57:05.858Z,99125.14
2017-12-10T03:59:33.400Z,99120.27
2017-12-10T04:02:00.847Z,99116.55
2017-12-10T04:04:28.313Z,99121.52
2017-12-10T04:06:55.746Z,99121.38
2017-12-10T04:09:23.197Z,99116.45
2017-12-10T04:11:50.722Z,99114.89
2017-12-10T04:14:18.243Z,99114.02
2017-12-10T04:16:45.703Z,99119.04
2017-12-10T04:19:13.169Z,99108.38
2017-12-10T04:21:40.626Z,99102.70
2017-12-10T04:24:08.127Z,99099.40
2017-12-10T04:26:35.575Z,99094.53
2017-12-10T04:29:03.246Z,99098.00
2017-12-10T04:31:30.703Z,99090.44
2017-12-10T04:33:58.160Z,99093.13
2017-12-10T04:36:26.107Z,99088.80
2017-12-10T04:38:53.609Z,99087.84
2017-12-10T04:41:21.091Z,99094.66
2017-12-10T04:43:48.546Z,99098.39
2017-12-10T04:46:16.330Z,99088.34
2017-12-10T04:48:43.865Z,99091.55
2017-12-10T04:51:11.346Z,99086.78
2017-12-10T04:53:38.800Z,99090.66
2017-12-10T04:56:06.264Z,99093.05
2017-12-10T04:58:33.759Z,99097.91
2017-12-10T05:01:01.220Z,99099.60
2017-12-10T05:03:28.671Z,99105.58
2017-12-10T05:05:56.189Z,99103.47
2017-12-10T05:08:23.795Z,99100.28
2017-12-10T05:10:51.251Z,99097.59
2017-12-10T05:13:18.722Z,99100.45
2017-12-10T05:15:46.180Z,99091.78
2017-12-10T05:18:13.653Z,99099.61
2017-12-10T05:20:41.147Z,99090.50
2017-12-10T05:23:08.595Z,99093.50
2017-12-10T05:25:36.075Z,99090.53
2017-12-10T05:28:03.540Z,99092.42
2017-12-10T05:30:31.068Z,99089.78
2017-12-10T05:32:58.547Z,99091.11
2017-12-10T05:35:26.037Z,99083.81
2017-12-10T05:37:53.490Z,99084.47
2017-12-10T05:40:20.980Z,99077.59
2017-12-10T05:42:48.465Z,99073.60
2017-12-10T05:45:16.176Z,99074.62
2017-12-10T05:47:43.678Z,99076.12
2017-12-10T05:50:11.136Z,99079.33
2017-12-10T05:52:38.615Z,99077.91
2017-12-10T05:55:06.138Z,99075.38
2017-12-10T05:57:33.595Z,99064.89
2017-12-10T06:00:01.040Z,99065.82
2017-12-10T06:02:28.504Z,99065.95
2017-12-10T06:04:55.968Z,99062.94
2017-12-10T06:07:23.444Z,99061.61
2017-12-10T06:09:50.906Z,99061.94
2017-12-10T06:12:18.356Z,99053.84
2017-12-10T06:14:45.829Z,99056.22
2017-12-10T06:17:13.294Z,99052.75
2017-12-10T06:19:40.731Z,99055.16
2017-12-10T06:22:08.180Z,99050.17
2017-12-10T06:24:35.626Z,99055.08
2017-12-10T06:27:03.090Z,99053.80
2017-12-10T06:29:30.573Z,99052.04
2017-12-10T06:31:58.099Z,99046.03
2017-12-10T06:34:25.559Z,99042.38
2017-12-10T06:36:53.014Z,99034.06
2017-12-10T06:39:20.455Z,99026.84
2017-12-10T06:41:47.938Z,99020.23
2017-12-10T06:44:15.453Z,99022.27
2017-12-10T06:46:42.924Z,99022.53
2017-12-10T06:49:10.455Z,99030.75
2017-12-10T06:51:38.025Z,99025.39
2017-12-10T06:54:05.473Z,99025.02
2017-12-10T06:56:33.106Z,99018.84
2017-12-10T06:59:00.802Z,99015.23
2017-12-10T07:01:28.313Z,99019.75
2017-12-10T07:03:55.776Z,99018.27
2017-12-10T07:06:23.255Z,99018.94
2017-12-10T07:08:50.711Z,99018.84
2017-12-10T07:11:18.154Z,99015.45
2017-12-10T07:13:45.617Z,99014.56
2017-12-10T07:16:13.249Z,99014.22
2017-12-10T07:18:40.904Z,98998.91
2017-12-10T07:21:08.394Z,98998.61
2017-12-10T07:23:35.836Z,98982.31
2017-12-10T07:26:03.322Z,98974.89
2017-12-10T07:28:30.962Z,98973.28
2017-12-10T07:30:58.464Z,98971.67
2017-12-10T07:33:25.915Z,98954.58
2017-12-10T07:35:53.379Z,98947.02
2017-12-10T07:38:20.883Z,98951.69
2017-12-10T07:40:48.362Z,98953.47
2017-12-10T07:43:15.828Z,98940.63
2017-12-10T07:45:43.437Z,98942.47
2017-12-10T07:48:10.925Z,98933.02
2017-12-10T07:50:38.373Z,98923.34
2017-12-10T07:53:05.829Z,98919.98
2017-12-10T07:55:33.312Z,98921.41
2017-12-10T07:58:00.814Z,98913.73
2017-12-10T08:00:28.409Z,98905.41
2017-12-10T08:02:55.968Z,98903.84
2017-12-10T08:05:23.431Z,98902.17
2017-12-10T08:07:50.883Z,98891.41
2017-12-10T08:10:18.369Z,98887.75
2017-12-10T08:12:45.876Z,98889.04
2017-12-10T08:15:13.678Z,98879.05
2017-12-10T08:17:41.191Z,98873.16
2017-12-10T08:20:08.696Z,98861.00
2017-12-10T08:22:36.174Z,98865.31
2017-12-10T08:25:03.656Z,98860.80
2017-12-10T08:27:31.104Z,98855.81
2017-12-10T08:29:58.558Z,98853.16
2017-12-10T08:32:26.051Z,98847.02
2017-12-10T08:34:53.519Z,98847.19
2017-12-10T08:37:20.989Z,98832.58
2017-12-10T08:39:48.452Z,98830.28
2017-12-10T08:42:15.928Z,98829.89
2017-12-10T08:44:43.400Z,98820.71
2017-12-10T08:47:10.957Z,98809.86
2017-12-10T08:49:38.440Z,98799.00
2017-12-10T08:52:05.903Z,98789.54
2017-12-10T08:54:33.384Z,98771.50
2017-12-10T08:57:00.847Z,98755.24
2017-12-10T08:59:28.313Z,98746.13
2017-12-10T09:01:55.776Z,98733.55
2017-12-10T09:04:23.225Z,98722.30
2017-12-10T09:06:50.681Z,98711.38
2017-12-10T09:09:18.171Z,98699.22
2017-12-10T09:11:45.630Z,98689.59
2017-12-10T09:14:13.293Z,98676.60
2017-12-10T09:16:40.765Z,98673.38
2017-12-10T09:19:08.234Z,98649.92
2017-12-10T09:21:35.719Z,98639.11
2017-12-10T09:24:03.201Z,98629.42
2017-12-10T09:26:30.899Z,98610.95
2017-12-10T09:28:58.375Z,98602.17
2017-12-10T09:31:25.871Z,98589.63
2017-12-10T09:33:53.371Z,98569.92
2017-12-10T09:36:20.828Z,98561.06
2017-12-10T09:38:48.286Z,98555.61
2017-12-10T09:41:15.796Z,98553.18
2017-12-10T09:43:43.265Z,98543.52
2017-12-10T09:46:10.726Z,98525.48
2017-12-10T09:48:38.230Z,98520.92
2017-12-10T09:51:05.755Z,98505.00
2017-12-10T09:53:33.280Z,98497.85
2017-12-10T09:56:00.731Z,98488.64
2017-12-10T09:58:28.214Z,98475.69
2017-12-10T10:00:55.658Z,98468.53
2017-12-10T10:03:23.135Z,98454.28
2017-12-10T10:05:50.631Z,98440.43
2017-12-10T10:08:18.084Z,98440.86
2017-12-10T10:10:45.548Z,98430.83
2017-12-10T10:13:13.022Z,98424.55
2017-12-10T10:15:40.492Z,98408.58
2017-12-10T10:18:07.993Z,98403.95
2017-12-10T10:20:35.509Z,98397.22
2017-12-10T10:23:02.983Z,98389.66
2017-12-10T10:25:30.468Z,98387.97
2017-12-10T10:27:57.920Z,98375.78
2017-12-10T10:30:25.579Z,98365.67
2017-12-10T10:32:53.032Z,98363.11
2017-12-10T10:35:20.507Z,98357.66
2017-12-10T10:37:48.006Z,98340.00
2017-12-10T10:40:15.746Z,98322.73
2017-12-10T10:42:43.439Z,98313.90
2017-12-10T10:45:10.907Z,98294.14
2017-12-10T10:47:38.349Z,98291.99
2017-12-10T10:50:05.828Z,98294.48
2017-12-10T10:52:33.556Z,98275.52
2017-12-10T10:55:01.055Z,98274.68
2017-12-10T10:57:28.495Z,98272.55
2017-12-10T10:59:55.962Z,98255.23
2017-12-10T11:02:23.425Z,98254.75
2017-12-10T11:04:50.859Z,98234.88
2017-12-10T11:07:18.339Z,98221.02
2017-12-10T11:09:45.817Z,98200.78
2017-12-10T11:12:13.299Z,98183.46
2017-12-10T11:14:40.755Z,98183.93
2017-12-10T11:17:08.206Z,98174.64
2017-12-10T11:19:35.709Z,98148.47
2017-12-10T11:22:03.155Z,98138.72
2017-12-10T11:24:30.611Z,98123.76
2017-12-10T11:26:58.155Z,98097.09
2017-12-10T11:29:26.030Z,98090.38
2017-12-10T11:31:53.835Z,98085.75
2017-12-10T11:34:21.336Z,98067.03
2017-12-10T11:36:48.805Z,98059.52
2017-12-10T11:39:16.635Z,98057.86
2017-12-10T11:41:44.120Z,98055.83
2017-12-10T11:44:11.662Z,98058.06
2017-12-10T11:46:39.139Z,98054.75
2017-12-10T11:49:06.674Z,98051.41
2017-12-10T11:51:34.139Z,98032.42
2017-12-10T11:54:01.625Z,98020.91
2017-12-10T11:56:29.265Z,98011.61
2017-12-10T11:58:56.704Z,97991.27
2017-12-10T12:01:24.178Z,97978.17
2017-12-10T12:03:51.679Z,97967.22
2017-12-10T12:06:19.181Z,97959.02
2017-12-10T12:08:46.640Z,97951.80
2017-12-10T12:11:14.091Z,97944.94
2017-12-10T12:13:41.578Z,97928.87
2017-12-10T12:16:09.039Z,97914.69
2017-12-10T12:18:36.510Z,97907.94
2017-12-10T12:21:04.009Z,97886.75
2017-12-10T12:23:31.457Z,97875.33
2017-12-10T12:25:58.896Z,97859.44
2017-12-10T12:28:26.350Z,97834.25
2017-12-10T12:30:53.797Z,97836.68
2017-12-10T12:33:21.316Z,97830.15
2017-12-10T12:35:48.838Z,97829.80
2017-12-10T12:38:16.435Z,97836.94
2017-12-10T12:40:43.899Z,97818.14
2017-12-10T12:43:11.355Z,97805.72
2017-12-10T12:45:38.830Z,97803.48
2017-12-10T12:48:06.283Z,97803.19
2017-12-10T12:50:35.223Z,97791.22
2017-12-10T12:53:02.751Z,97777.25
2017-12-10T12:55:30.210Z,97764.88
2017-12-10T12:57:57.687Z,97740.13
2017-12-10T13:00:25.239Z,97740.19
2017-12-10T13:02:52.692Z,97723.73
2017-12-10T13:05:20.179Z,97716.16
2017-12-10T13:07:47.647Z,97704.63
2017-12-10T13:10:15.328Z,97704.50
2017-12-10T13:12:43.019Z,97692.39
2017-12-10T13:15:10.476Z,97689.50
2017-12-10T13:17:37.975Z,97670.33
2017-12-10T13:20:05.485Z,97640.73
2017-12-10T13:22:33.225Z,97634.28
2017-12-10T13:25:00.695Z,97618.67
2017-12-10T13:27:28.184Z,97614.52
2017-12-10T13:29:55.610Z,97594.63
2017-12-10T13:32:23.292Z,97577.79
2017-12-10T13:34:50.902Z,97574.94
2017-12-10T13:37:18.347Z,97565.38
2017-12-10T13:39:45.815Z,97554.16
2017-12-10T13:42:13.255Z,97542.79
2017-12-10T13:44:40.702Z,97540.85
2017-12-10T13:47:08.171Z,97526.15
2017-12-10T13:49:35.628Z,97531.05
2017-12-10T13:52:03.085Z,97531.48
2017-12-10T13:54:30.579Z,97514.95
2017-12-10T13:56:58.058Z,97523.67
2017-12-10T13:59:25.488Z,97512.73
2017-12-10T14:01:53.004Z,97511.75
2017-12-10T14:04:20.452Z,97506.58
2017-12-10T14:06:47.943Z,97506.81
2017-12-10T14:09:15.712Z,97503.20
2017-12-10T14:11:43.166Z,97500.41
2017-12-10T14:14:10.653Z,97501.24
2017-12-10T14:16:38.227Z,97491.50
2017-12-10T14:19:05.667Z,97478.45
2017-12-10T14:21:33.137Z,97484.47
2017-12-10T14:24:00.611Z,97466.05
2017-12-10T14:26:28.052Z,97463.22
2017-12-10T14:28:55.519Z,97458.33
2017-12-10T14:31:23.444Z,97460.31
2017-12-10T14:33:50.984Z,97444.53
2017-12-10T14:36:18.460Z,97438.02
2017-12-10T14:38:45.948Z,97424.39
2017-12-10T14:41:13.410Z,97418.03
2017-12-10T14:43:40.869Z,97407.13
2017-12-10T14:46:08.358Z,97404.19
2017-12-10T14:48:35.807Z,97391.52
2017-12-10T14:51:03.310Z,97391.63
2017-12-10T14:53:30.755Z,97377.63
2017-12-10T14:55:58.248Z,97388.63
2017-12-10T14:58:25.714Z,97378.95
2017-12-10T15:00:53.199Z,97376.73
2017-12-10T15:03:20.976Z,97377.14
2017-12-10T15:05:48.464Z,97373.78
2017-12-10T15:08:16.348Z,97365.00
2017-12-10T15:10:43.837Z,97365.95
2017-12-10T15:13:11.318Z,97366.01
2017-12-10T15:15:38.854Z,97354.22
2017-12-10T15:18:06.316Z,97350.81
2017-12-10T15:20:34.181Z,97345.77
2017-12-10T15:23:01.696Z,97342.86
2017-12-10T15:25:29.178Z,97351.17
2017-12-10T15:27:56.619Z,97344.86
2017-12-10T15:30:24.228Z,97342.27
2017-12-10T15:32:51.734Z,97347.99
2017-12-10T15:35:19.189Z,97352.61
2017-12-10T15:37:47.531Z,97351.12
2017-12-10T15:40:15.322Z,97336.91
2017-12-10T15:42:42.902Z,97321.23
2017-12-10T15:45:10.378Z,97312.52
2017-12-10T15:47:37.852Z,97313.70
2017-12-10T15:50:05.312Z,97318.16
2017-12-10T15:52:32.859Z,97299.32
2017-12-10T15:55:00.365Z,97286.63
2017-12-10T15:57:27.815Z,97289.33
2017-12-10T15:59:55.282Z,97283.80
2017-12-10T16:02:22.759Z,97285.91
2017-12-10T16:04:50.241Z,97298.39
2017-12-10T16:07:17.720Z,97311.75
2017-12-10T16:09:45.256Z,97324.32
2017-12-10T16:12:12.739Z,97320.95
2017-12-10T16:14:40.223Z,97321.45
2017-12-10T16:17:07.761Z,97324.81
2017-12-10T16:19:35.235Z,97336.58
2017-12-10T16:22:02.720Z,97340.02
2017-12-10T16:24:30.296Z,97343.28
2017-12-10T16:26:57.771Z,97347.43
2017-12-10T16:29:25.267Z,97352.13
2017-12-10T16:31:52.741Z,97360.40
2017-12-10T16:34:20.551Z,97353.87
2017-12-10T16:36:48.287Z,97359.22
2017-12-10T16:39:16.380Z,97355.79
2017-12-10T16:41:43.903Z,97366.37
2017-12-10T16:44:12.403Z,97361.38
2017-12-10T16:46:40.098Z,97362.89
2017-12-10T16:49:07.675Z,97363.73
2017-12-10T16:51:35.151Z,97356.33
2017-12-10T16:54:02.702Z,97366.37
2017-12-10T16:56:31.342Z,97371.78
2017-12-10T16:59:00.060Z,97383.15
2017-12-10T17:01:31.376Z,97376.36
2017-12-10T17:03:58.934Z,97372.55
2017-12-10T17:06:26.810Z,97375.39
2017-12-10T17:08:54.296Z,97374.76
2017-12-10T17:11:21.771Z,97382.81
2017-12-10T17:13:49.269Z,97399.60
2017-12-10T17:16:18.144Z,97398.94
2017-12-10T17:18:46.014Z,97384.08
2017-12-10T17:21:13.697Z,97371.27
2017-12-10T17:23:42.148Z,97368.31
2017-12-10T17:26:09.668Z,97371.63
2017-12-10T17:28:37.219Z,97354.23
2017-12-10T17:31:04.658Z,97355.27
2017-12-10T17:33:32.159Z,97357.79
2017-12-10T17:35:59.603Z,97361.72
2017-12-10T17:38:27.058Z,97360.75
2017-12-10T17:40:54.594Z,97366.51
2017-12-10T17:43:22.229Z,97362.65
2017-12-10T17:45:49.735Z,97356.09
2017-12-10T17:48:17.218Z,97364.39
2017-12-10T17:50:44.680Z,97363.34
2017-12-10T17:53:12.163Z,97370.52
2017-12-10T17:55:39.675Z,97374.13
2017-12-10T17:58:07.170Z,97375.77
2017-12-10T18:00:34.638Z,97369.05
2017-12-10T18:03:02.099Z,97367.52
2017-12-10T18:05:29.570Z,97361.03
2017-12-10T18:07:57.008Z,97369.05
2017-12-10T18:10:24.494Z,97368.36
2017-12-10T18:12:52.368Z,97372.68
2017-12-10T18:15:19.861Z,97372.22
2017-12-10T18:17:47.336Z,97352.70
2017-12-10T18:20:15.133Z,97386.08
2017-12-10T18:22:42.673Z,97358.45
2017-12-10T18:25:10.148Z,97357.42
2017-12-10T18:27:37.749Z,97369.17
2017-12-10T18:30:05.232Z,97343.73
2017-12-10T18:32:32.731Z,97350.59
2017-12-10T18:35:00.243Z,97377.77
2017-12-10T18:37:27.736Z,97395.25
2017-12-10T18:39:55.232Z,97361.16
2017-12-10T18:42:22.881Z,97357.81
2017-12-10T18:44:50.498Z,97359.50
2017-12-10T18:47:18.044Z,97365.16
2017-12-10T18:49:45.523Z,97375.15
2017-12-10T18:52:13.002Z,97364.02
2017-12-10T18:54:40.519Z,97371.53
2017-12-10T18:57:08.047Z,97373.84
2017-12-10T18:59:35.512Z,97369.83
2017-12-10T19:02:03.123Z,97361.14
2017-12-10T19:04:30.639Z,97376.03
2017-12-10T19:06:58.096Z,97382.14
2017-12-10T19:09:25.655Z,97373.83
2017-12-10T19:11:53.210Z,97376.12
2017-12-10T19:14:21.595Z,97388.81
2017-12-10T19:16:49.077Z,97378.70
2017-12-10T19:19:17.060Z,97395.62
2017-12-10T19:21:44.547Z,97405.92
2017-12-10T19:24:12.103Z,97395.67
2017-12-10T19:26:39.603Z,97398.86
2017-12-10T19:29:08.328Z,97399.83
2017-12-10T19:31:35.905Z,97401.10
2017-12-10T19:34:03.605Z,97365.83
2017-12-10T19:36:31.844Z,97399.93
2017-12-10T19:38:59.303Z,97395.91
2017-12-10T19:41:26.835Z,97390.62
2017-12-10T19:43:54.390Z,97391.11
2017-12-10T19:46:21.840Z,97413.44
2017-12-10T19:48:49.320Z,97410.24
2017-12-10T19:51:16.941Z,97394.91
2017-12-10T19:53:44.632Z,97399.46
2017-12-10T19:56:12.574Z,97403.15
2017-12-10T19:58:40.286Z,97405.30
2017-12-10T20:01:07.926Z,97390.85
2017-12-10T20:03:35.526Z,97385.57
2017-12-10T20:06:03.110Z,97388.63
2017-12-10T20:08:30.935Z,97382.69
2017-12-10T20:10:58.432Z,97393.49
2017-12-10T20:13:25.916Z,97396.63
2017-12-10T20:15:53.510Z,97395.05
2017-12-10T20:18:21.121Z,97397.17
2017-12-10T20:20:48.652Z,97418.17
2017-12-10T20:23:16.183Z,97415.19
2017-12-10T20:25:43.706Z,97432.17
2017-12-10T20:28:11.261Z,97445.92
2017-12-10T20:30:38.722Z,97429.64
2017-12-10T20:33:06.200Z,97434.41
2017-12-10T20:35:33.778Z,97441.22
2017-12-10T20:38:01.312Z,97433.67
2017-12-10T20:40:28.858Z,97438.72
2017-12-10T20:42:56.323Z,97431.03
2017-12-10T20:45:23.822Z,97443.17
2017-12-10T20:47:51.383Z,97435.09
2017-12-10T20:50:18.890Z,97445.50
2017-12-10T20:52:46.721Z,97453.05
2017-12-10T20:55:14.184Z,97438.73
2017-12-10T20:57:41.671Z,97449.70
2017-12-10T21:00:09.179Z,97458.80
2017-12-10T21:02:36.632Z,97448.55
2017-12-10T21:05:04.150Z,97452.49
2017-12-10T21:07:31.659Z,97459.37
2017-12-10T21:09:59.130Z,97464.63
2017-12-10T21:12:26.831Z,97460.74
2017-12-10T21:14:54.298Z,97478.73
2017-12-10T21:17:21.815Z,97474.77
2017-12-10T21:19:49.351Z,97473.19
2017-12-10T21:22:16.827Z,97475.50
2017-12-10T21:24:44.585Z,97475.17
2017-12-10T21:27:12.069Z,97484.51
2017-12-10T21:29:39.548Z,97493.39
2017-12-10T21:32:07.016Z,97477.81
2017-12-10T21:34:34.569Z,97506.13
2017-12-10T21:37:02.024Z,97506.64
2017-12-10T21:39:29.496Z,97521.73
2017-12-10T21:41:56.969Z,97520.03
2017-12-10T21:44:24.467Z,97516.37
2017-12-10T21:46:51.930Z,97524.00
2017-12-10T21:49:19.393Z,97527.34
2017-12-10T21:51:46.884Z,97528.41
2017-12-10T21:54:14.345Z,97539.89
2017-12-10T21:56:41.806Z,97544.94
2017-12-10T21:59:09.275Z,97540.72
2017-12-10T22:01:36.732Z,97532.64
2017-12-10T22:04:04.208Z,97531.45
2017-12-10T22:06:31.723Z,97528.14
2017-12-10T22:08:59.198Z,97526.41
2017-12-10T22:11:26.653Z,97536.83
2017-12-10T22:13:54.123Z,97533.42
2017-12-10T22:16:21.586Z,97526.83
2017-12-10T22:18:49.408Z,97533.66
2017-12-10T22:21:16.871Z,97528.85
2017-12-10T22:23:44.339Z,97536.89
2017-12-10T22:26:11.820Z,97526.81
2017-12-10T22:28:39.327Z,97509.37
2017-12-10T22:31:06.811Z,97511.28
2017-12-10T22:33:34.351Z,97512.42
2017-12-10T22:36:01.822Z,97517.80
2017-12-10T22:38:29.554Z,97518.94
2017-12-10T22:40:56.997Z,97519.54
2017-12-10T22:43:24.472Z,97514.55
2017-12-10T22:45:51.932Z,97513.83
2017-12-10T22:48:19.388Z,97506.67
2017-12-10T22:50:46.892Z,97505.38
2017-12-10T22:53:14.353Z,97518.47
2017-12-10T22:55:41.794Z,97523.08
2017-12-10T22:58:09.250Z,97520.98
2017-12-10T23:00:36.792Z,97520.06
2017-12-10T23:03:04.375Z,97512.95
2017-12-10T23:05:31.827Z,97495.60
2017-12-10T23:07:59.255Z,97493.27
2017-12-10T23:10:26.694Z,97495.74
2017-12-10T23:12:54.373Z,97481.33
2017-12-10T23:15:21.892Z,97473.27
2017-12-10T23:17:49.348Z,97462.79
2017-12-10T23:20:25.404Z,97460.20
2017-12-10T23:22:52.867Z,97460.04
2017-12-10T23:25:20.310Z,97453.29
2017-12-10T23:27:47.770Z,97458.64
2017-12-10T23:30:15.325Z,97457.42
2017-12-10T23:32:42.792Z,97443.75
2017-12-10T23:35:10.251Z,97446.06
2017-12-10T23:37:37.767Z,97445.78
2017-12-10T23:40:05.254Z,97452.06
2017-12-10T23:42:33.291Z,97451.99
2017-12-10T23:45:00.752Z,97446.38
2017-12-10T23:47:28.208Z,97450.23
2017-12-10T23:49:56.583Z,97455.50
2017-12-10T23:52:24.196Z,97459.38
2017-12-10T23:54:51.641Z,97455.02
2017-12-10T23:57:19.089Z,97455.30
2017-12-10T23:59:46.551Z,97455.27
